sensor_id;sensor_type;location;lat;lon;timestamp;P1;durP1;ratioP1;P2;durP2;ratioP2
16462;SDS011;8342;42.736;23.292;2022-08-19T00:00:07;5.73;;;4.87;;
16462;SDS011;8342;42.736;23.292;2022-08-19T00:02:36;5.80;;;5.03;;
16462;SDS011;8342;42.736;23.292;2022-08-19T00:05:03;5.93;;;5.37;;
16462;SDS011;8342;42.736;23.292;2022-08-19T00:07:31;5.70;;;5.00;;
16462;SDS011;8342;42.736;23.292;2022-08-19T00:09:57;11.87;;;5.30;;
16462;SDS011;8342;42.736;23.292;2022-08-19T00:12:26;5.27;;;4.87;;
16462;SDS011;8342;42.736;23.292;2022-08-19T00:14:52;7.33;;;4.93;;
16462;SDS011;8342;42.736;23.292;2022-08-19T00:17:20;5.10;;;4.60;;
16462;SDS011;8342;42.736;23.292;2022-08-19T00:19:47;5.77;;;5.20;;
16462;SDS011;8342;42.736;23.292;2022-08-19T00:22:13;5.87;;;5.10;;
16462;SDS011;8342;42.736;23.292;2022-08-19T00:24:42;7.10;;;6.07;;
16462;SDS011;8342;42.736;23.292;2022-08-19T00:27:10;7.07;;;5.70;;
16462;SDS011;8342;42.736;23.292;2022-08-19T00:29:38;7.43;;;6.53;;
16462;SDS011;8342;42.736;23.292;2022-08-19T00:32:05;9.10;;;7.50;;
16462;SDS011;8342;42.736;23.292;2022-08-19T00:34:32;8.60;;;7.23;;
16462;SDS011;8342;42.736;23.292;2022-08-19T00:36:59;13.60;;;7.00;;
16462;SDS011;8342;42.736;23.292;2022-08-19T00:39:26;10.03;;;7.80;;
16462;SDS011;8342;42.736;23.292;2022-08-19T00:41:53;10.17;;;8.13;;
16462;SDS011;8342;42.736;23.292;2022-08-19T00:44:21;9.03;;;8.10;;
16462;SDS011;8342;42.736;23.292;2022-08-19T00:46:50;10.97;;;8.57;;
16462;SDS011;8342;42.736;23.292;2022-08-19T00:49:19;10.73;;;7.67;;
16462;SDS011;8342;42.736;23.292;2022-08-19T00:51:52;8.30;;;7.40;;
16462;SDS011;8342;42.736;23.292;2022-08-19T00:54:21;7.87;;;6.40;;
16462;SDS011;8342;42.736;23.292;2022-08-19T00:56:49;10.00;;;6.73;;
16462;SDS011;8342;42.736;23.292;2022-08-19T00:59:16;7.03;;;6.33;;
16462;SDS011;8342;42.736;23.292;2022-08-19T01:01:44;7.07;;;6.37;;
16462;SDS011;8342;42.736;23.292;2022-08-19T01:04:13;7.27;;;6.20;;
16462;SDS011;8342;42.736;23.292;2022-08-19T01:06:40;8.37;;;7.47;;
16462;SDS011;8342;42.736;23.292;2022-08-19T01:09:07;8.47;;;7.37;;
16462;SDS011;8342;42.736;23.292;2022-08-19T01:11:36;7.43;;;6.83;;
16462;SDS011;8342;42.736;23.292;2022-08-19T01:14:05;12.73;;;7.27;;
16462;SDS011;8342;42.736;23.292;2022-08-19T01:16:32;8.10;;;7.30;;
16462;SDS011;8342;42.736;23.292;2022-08-19T01:19:00;7.43;;;6.73;;
16462;SDS011;8342;42.736;23.292;2022-08-19T01:21:29;8.20;;;6.60;;
16462;SDS011;8342;42.736;23.292;2022-08-19T01:24:00;9.93;;;6.90;;
16462;SDS011;8342;42.736;23.292;2022-08-19T01:26:27;8.37;;;7.03;;
16462;SDS011;8342;42.736;23.292;2022-08-19T01:28:56;7.37;;;6.67;;
16462;SDS011;8342;42.736;23.292;2022-08-19T01:31:26;7.67;;;6.90;;
16462;SDS011;8342;42.736;23.292;2022-08-19T01:33:56;8.73;;;7.57;;
16462;SDS011;8342;42.736;23.292;2022-08-19T01:36:26;8.40;;;7.57;;
16462;SDS011;8342;42.736;23.292;2022-08-19T01:38:55;8.77;;;7.87;;
16462;SDS011;8342;42.736;23.292;2022-08-19T01:41:24;8.33;;;6.87;;
16462;SDS011;8342;42.736;23.292;2022-08-19T01:43:51;9.53;;;7.43;;
16462;SDS011;8342;42.736;23.292;2022-08-19T01:46:19;8.77;;;7.93;;
16462;SDS011;8342;42.736;23.292;2022-08-19T01:48:46;8.10;;;7.30;;
16462;SDS011;8342;42.736;23.292;2022-08-19T01:51:13;8.73;;;7.23;;
16462;SDS011;8342;42.736;23.292;2022-08-19T01:53:40;9.93;;;7.57;;
16462;SDS011;8342;42.736;23.292;2022-08-19T01:56:07;8.57;;;7.73;;
16462;SDS011;8342;42.736;23.292;2022-08-19T01:58:36;8.67;;;7.77;;
16462;SDS011;8342;42.736;23.292;2022-08-19T02:01:05;7.17;;;6.47;;
16462;SDS011;8342;42.736;23.292;2022-08-19T02:03:32;9.33;;;8.27;;
16462;SDS011;8342;42.736;23.292;2022-08-19T02:06:00;10.57;;;7.73;;
16462;SDS011;8342;42.736;23.292;2022-08-19T02:08:28;8.13;;;7.37;;
16462;SDS011;8342;42.736;23.292;2022-08-19T02:10:56;7.93;;;7.10;;
16462;SDS011;8342;42.736;23.292;2022-08-19T02:13:23;9.53;;;7.77;;
16462;SDS011;8342;42.736;23.292;2022-08-19T02:15:52;9.30;;;7.90;;
16462;SDS011;8342;42.736;23.292;2022-08-19T02:18:19;9.03;;;7.47;;
16462;SDS011;8342;42.736;23.292;2022-08-19T02:20:46;10.93;;;7.57;;
16462;SDS011;8342;42.736;23.292;2022-08-19T02:23:13;11.40;;;7.87;;
16462;SDS011;8342;42.736;23.292;2022-08-19T02:25:41;9.03;;;8.13;;
16462;SDS011;8342;42.736;23.292;2022-08-19T02:28:09;8.37;;;7.60;;
16462;SDS011;8342;42.736;23.292;2022-08-19T02:30:36;10.43;;;7.40;;
16462;SDS011;8342;42.736;23.292;2022-08-19T02:33:05;8.60;;;7.77;;
16462;SDS011;8342;42.736;23.292;2022-08-19T02:35:31;8.93;;;7.40;;
16462;SDS011;8342;42.736;23.292;2022-08-19T02:37:58;9.10;;;7.30;;
16462;SDS011;8342;42.736;23.292;2022-08-19T02:40:47;7.57;;;6.87;;
16462;SDS011;8342;42.736;23.292;2022-08-19T02:43:15;8.10;;;7.30;;
16462;SDS011;8342;42.736;23.292;2022-08-19T02:45:42;7.83;;;7.03;;
16462;SDS011;8342;42.736;23.292;2022-08-19T02:48:10;7.57;;;6.87;;
16462;SDS011;8342;42.736;23.292;2022-08-19T02:50:38;8.13;;;7.43;;
16462;SDS011;8342;42.736;23.292;2022-08-19T02:53:05;7.20;;;6.50;;
16462;SDS011;8342;42.736;23.292;2022-08-19T02:55:33;8.37;;;7.10;;
16462;SDS011;8342;42.736;23.292;2022-08-19T02:58:00;7.57;;;6.83;;
16462;SDS011;8342;42.736;23.292;2022-08-19T03:00:27;7.67;;;6.90;;
16462;SDS011;8342;42.736;23.292;2022-08-19T03:02:53;8.30;;;7.43;;
16462;SDS011;8342;42.736;23.292;2022-08-19T03:05:22;13.83;;;7.93;;
16462;SDS011;8342;42.736;23.292;2022-08-19T03:07:49;8.20;;;6.90;;
16462;SDS011;8342;42.736;23.292;2022-08-19T03:10:15;7.97;;;7.17;;
16462;SDS011;8342;42.736;23.292;2022-08-19T03:12:43;7.80;;;7.07;;
16462;SDS011;8342;42.736;23.292;2022-08-19T03:15:11;8.43;;;7.60;;
16462;SDS011;8342;42.736;23.292;2022-08-19T03:17:38;8.03;;;7.33;;
16462;SDS011;8342;42.736;23.292;2022-08-19T03:20:05;8.40;;;7.50;;
16462;SDS011;8342;42.736;23.292;2022-08-19T03:22:34;10.20;;;6.93;;
16462;SDS011;8342;42.736;23.292;2022-08-19T03:25:01;7.87;;;7.17;;
16462;SDS011;8342;42.736;23.292;2022-08-19T03:27:28;8.47;;;7.67;;
16462;SDS011;8342;42.736;23.292;2022-08-19T03:29:55;11.77;;;7.50;;
16462;SDS011;8342;42.736;23.292;2022-08-19T03:32:21;8.40;;;7.70;;
16462;SDS011;8342;42.736;23.292;2022-08-19T03:34:48;8.07;;;7.37;;
16462;SDS011;8342;42.736;23.292;2022-08-19T03:37:16;8.60;;;7.80;;
16462;SDS011;8342;42.736;23.292;2022-08-19T03:39:44;8.40;;;7.60;;
16462;SDS011;8342;42.736;23.292;2022-08-19T03:42:11;10.97;;;7.83;;
16462;SDS011;8342;42.736;23.292;2022-08-19T03:44:38;10.77;;;7.93;;
16462;SDS011;8342;42.736;23.292;2022-08-19T03:47:05;9.20;;;8.00;;
16462;SDS011;8342;42.736;23.292;2022-08-19T03:49:32;8.40;;;7.60;;
16462;SDS011;8342;42.736;23.292;2022-08-19T03:52:00;7.97;;;7.17;;
16462;SDS011;8342;42.736;23.292;2022-08-19T03:54:27;9.30;;;7.30;;
16462;SDS011;8342;42.736;23.292;2022-08-19T03:56:55;8.40;;;7.33;;
16462;SDS011;8342;42.736;23.292;2022-08-19T03:59:24;8.53;;;7.40;;
16462;SDS011;8342;42.736;23.292;2022-08-19T04:01:52;9.60;;;8.27;;
16462;SDS011;8342;42.736;23.292;2022-08-19T04:04:19;9.17;;;7.90;;
16462;SDS011;8342;42.736;23.292;2022-08-19T04:06:46;8.40;;;7.70;;
16462;SDS011;8342;42.736;23.292;2022-08-19T04:09:14;9.67;;;7.13;;
16462;SDS011;8342;42.736;23.292;2022-08-19T04:11:43;8.00;;;7.23;;
16462;SDS011;8342;42.736;23.292;2022-08-19T04:14:13;10.93;;;7.90;;
16462;SDS011;8342;42.736;23.292;2022-08-19T04:16:42;10.93;;;8.40;;
16462;SDS011;8342;42.736;23.292;2022-08-19T04:19:09;8.83;;;6.90;;
16462;SDS011;8342;42.736;23.292;2022-08-19T04:21:36;8.47;;;7.37;;
16462;SDS011;8342;42.736;23.292;2022-08-19T04:24:03;8.40;;;7.60;;
16462;SDS011;8342;42.736;23.292;2022-08-19T04:26:32;8.63;;;7.73;;
16462;SDS011;8342;42.736;23.292;2022-08-19T04:29:05;10.80;;;8.47;;
16462;SDS011;8342;42.736;23.292;2022-08-19T04:31:35;8.47;;;7.60;;
16462;SDS011;8342;42.736;23.292;2022-08-19T04:34:03;8.50;;;7.47;;
16462;SDS011;8342;42.736;23.292;2022-08-19T04:36:32;11.77;;;8.47;;
16462;SDS011;8342;42.736;23.292;2022-08-19T04:39:03;8.87;;;8.03;;
16462;SDS011;8342;42.736;23.292;2022-08-19T04:41:32;10.60;;;8.17;;
16462;SDS011;8342;42.736;23.292;2022-08-19T04:44:17;12.00;;;9.83;;
16462;SDS011;8342;42.736;23.292;2022-08-19T04:46:46;13.23;;;10.13;;
16462;SDS011;8342;42.736;23.292;2022-08-19T04:49:14;18.83;;;12.63;;
16462;SDS011;8342;42.736;23.292;2022-08-19T04:51:43;17.57;;;10.93;;
16462;SDS011;8342;42.736;23.292;2022-08-19T04:54:12;14.10;;;11.73;;
16462;SDS011;8342;42.736;23.292;2022-08-19T04:56:40;18.67;;;11.07;;
16462;SDS011;8342;42.736;23.292;2022-08-19T04:59:06;15.63;;;9.70;;
16462;SDS011;8342;42.736;23.292;2022-08-19T05:01:34;10.87;;;9.40;;
16462;SDS011;8342;42.736;23.292;2022-08-19T05:04:03;11.57;;;9.43;;
16462;SDS011;8342;42.736;23.292;2022-08-19T05:06:32;15.77;;;10.77;;
16462;SDS011;8342;42.736;23.292;2022-08-19T05:08:59;12.90;;;10.83;;
16462;SDS011;8342;42.736;23.292;2022-08-19T05:11:27;11.67;;;10.47;;
16462;SDS011;8342;42.736;23.292;2022-08-19T05:13:55;14.10;;;11.20;;
16462;SDS011;8342;42.736;23.292;2022-08-19T05:16:23;14.97;;;11.40;;
16462;SDS011;8342;42.736;23.292;2022-08-19T05:18:51;12.43;;;10.80;;
16462;SDS011;8342;42.736;23.292;2022-08-19T05:21:37;12.80;;;11.00;;
16462;SDS011;8342;42.736;23.292;2022-08-19T05:24:23;12.67;;;10.63;;
16462;SDS011;8342;42.736;23.292;2022-08-19T05:26:52;21.23;;;11.47;;
16462;SDS011;8342;42.736;23.292;2022-08-19T05:29:22;12.63;;;10.80;;
16462;SDS011;8342;42.736;23.292;2022-08-19T05:31:49;15.07;;;10.47;;
16462;SDS011;8342;42.736;23.292;2022-08-19T05:34:17;12.40;;;11.20;;
16462;SDS011;8342;42.736;23.292;2022-08-19T05:36:48;11.13;;;9.80;;
16462;SDS011;8342;42.736;23.292;2022-08-19T05:39:17;13.17;;;10.97;;
16462;SDS011;8342;42.736;23.292;2022-08-19T05:41:45;11.20;;;10.10;;
16462;SDS011;8342;42.736;23.292;2022-08-19T05:44:14;11.60;;;10.17;;
16462;SDS011;8342;42.736;23.292;2022-08-19T05:46:42;15.60;;;11.30;;
16462;SDS011;8342;42.736;23.292;2022-08-19T05:49:12;12.40;;;10.80;;
16462;SDS011;8342;42.736;23.292;2022-08-19T05:51:39;11.77;;;9.63;;
16462;SDS011;8342;42.736;23.292;2022-08-19T05:54:07;12.97;;;10.03;;
16462;SDS011;8342;42.736;23.292;2022-08-19T05:56:36;10.97;;;9.70;;
16462;SDS011;8342;42.736;23.292;2022-08-19T05:59:03;11.13;;;9.73;;
16462;SDS011;8342;42.736;23.292;2022-08-19T06:01:35;10.67;;;9.50;;
16462;SDS011;8342;42.736;23.292;2022-08-19T06:04:02;11.17;;;9.07;;
16462;SDS011;8342;42.736;23.292;2022-08-19T06:06:29;10.03;;;8.73;;
16462;SDS011;8342;42.736;23.292;2022-08-19T06:08:59;13.77;;;9.03;;
16462;SDS011;8342;42.736;23.292;2022-08-19T06:11:33;9.13;;;8.23;;
16462;SDS011;8342;42.736;23.292;2022-08-19T06:14:02;11.70;;;8.43;;
16462;SDS011;8342;42.736;23.292;2022-08-19T06:16:33;8.40;;;7.50;;
16462;SDS011;8342;42.736;23.292;2022-08-19T06:19:01;11.93;;;8.63;;
16462;SDS011;8342;42.736;23.292;2022-08-19T06:21:29;28.10;;;9.17;;
16462;SDS011;8342;42.736;23.292;2022-08-19T06:23:56;11.50;;;8.37;;
16462;SDS011;8342;42.736;23.292;2022-08-19T06:26:24;8.23;;;6.57;;
16462;SDS011;8342;42.736;23.292;2022-08-19T06:28:53;13.53;;;7.40;;
16462;SDS011;8342;42.736;23.292;2022-08-19T06:31:21;9.63;;;7.53;;
16462;SDS011;8342;42.736;23.292;2022-08-19T06:33:53;9.57;;;7.20;;
16462;SDS011;8342;42.736;23.292;2022-08-19T06:36:23;9.40;;;7.40;;
16462;SDS011;8342;42.736;23.292;2022-08-19T06:38:56;9.33;;;7.33;;
16462;SDS011;8342;42.736;23.292;2022-08-19T06:41:24;10.33;;;6.87;;
16462;SDS011;8342;42.736;23.292;2022-08-19T06:43:52;7.80;;;7.10;;
16462;SDS011;8342;42.736;23.292;2022-08-19T06:46:19;11.37;;;7.73;;
16462;SDS011;8342;42.736;23.292;2022-08-19T06:48:46;10.23;;;7.60;;
16462;SDS011;8342;42.736;23.292;2022-08-19T06:51:14;11.73;;;7.50;;
16462;SDS011;8342;42.736;23.292;2022-08-19T06:53:43;9.93;;;7.00;;
16462;SDS011;8342;42.736;23.292;2022-08-19T06:56:12;10.13;;;6.97;;
16462;SDS011;8342;42.736;23.292;2022-08-19T06:58:39;8.93;;;7.07;;
16462;SDS011;8342;42.736;23.292;2022-08-19T07:01:08;9.60;;;6.77;;
16462;SDS011;8342;42.736;23.292;2022-08-19T07:03:36;8.53;;;7.63;;
16462;SDS011;8342;42.736;23.292;2022-08-19T07:06:04;16.87;;;8.03;;
16462;SDS011;8342;42.736;23.292;2022-08-19T07:08:32;14.57;;;7.83;;
16462;SDS011;8342;42.736;23.292;2022-08-19T07:11:01;9.17;;;7.93;;
16462;SDS011;8342;42.736;23.292;2022-08-19T07:13:29;10.40;;;7.60;;
16462;SDS011;8342;42.736;23.292;2022-08-19T07:16:02;12.17;;;7.67;;
16462;SDS011;8342;42.736;23.292;2022-08-19T07:18:32;11.90;;;8.03;;
16462;SDS011;8342;42.736;23.292;2022-08-19T07:21:02;11.20;;;9.17;;
16462;SDS011;8342;42.736;23.292;2022-08-19T07:23:30;12.07;;;9.50;;
16462;SDS011;8342;42.736;23.292;2022-08-19T07:25:57;13.77;;;9.60;;
16462;SDS011;8342;42.736;23.292;2022-08-19T07:28:24;10.63;;;9.17;;
16462;SDS011;8342;42.736;23.292;2022-08-19T07:30:51;10.83;;;9.60;;
16462;SDS011;8342;42.736;23.292;2022-08-19T07:33:18;12.80;;;10.03;;
16462;SDS011;8342;42.736;23.292;2022-08-19T07:35:46;13.87;;;10.50;;
16462;SDS011;8342;42.736;23.292;2022-08-19T07:38:13;16.77;;;8.33;;
16462;SDS011;8342;42.736;23.292;2022-08-19T07:40:41;14.03;;;9.27;;
16462;SDS011;8342;42.736;23.292;2022-08-19T07:43:08;13.13;;;8.07;;
16462;SDS011;8342;42.736;23.292;2022-08-19T07:45:35;13.37;;;7.70;;
16462;SDS011;8342;42.736;23.292;2022-08-19T07:48:03;10.90;;;8.40;;
16462;SDS011;8342;42.736;23.292;2022-08-19T07:50:30;11.20;;;7.70;;
16462;SDS011;8342;42.736;23.292;2022-08-19T07:52:59;14.60;;;8.50;;
16462;SDS011;8342;42.736;23.292;2022-08-19T07:55:26;9.90;;;7.87;;
16462;SDS011;8342;42.736;23.292;2022-08-19T07:57:53;11.83;;;7.97;;
16462;SDS011;8342;42.736;23.292;2022-08-19T08:00:20;10.30;;;7.57;;
16462;SDS011;8342;42.736;23.292;2022-08-19T08:02:48;16.23;;;7.87;;
16462;SDS011;8342;42.736;23.292;2022-08-19T08:05:14;15.93;;;7.83;;
16462;SDS011;8342;42.736;23.292;2022-08-19T08:08:00;12.17;;;7.83;;
16462;SDS011;8342;42.736;23.292;2022-08-19T08:10:44;8.30;;;7.40;;
16462;SDS011;8342;42.736;23.292;2022-08-19T08:13:11;9.77;;;7.27;;
16462;SDS011;8342;42.736;23.292;2022-08-19T08:15:38;14.23;;;9.30;;
16462;SDS011;8342;42.736;23.292;2022-08-19T08:18:05;9.53;;;8.47;;
16462;SDS011;8342;42.736;23.292;2022-08-19T08:20:32;11.77;;;7.40;;
16462;SDS011;8342;42.736;23.292;2022-08-19T08:23:01;13.20;;;7.60;;
16462;SDS011;8342;42.736;23.292;2022-08-19T08:25:45;9.27;;;7.10;;
16462;SDS011;8342;42.736;23.292;2022-08-19T08:28:13;15.00;;;7.17;;
16462;SDS011;8342;42.736;23.292;2022-08-19T08:30:40;8.40;;;7.60;;
16462;SDS011;8342;42.736;23.292;2022-08-19T08:33:08;9.37;;;7.60;;
16462;SDS011;8342;42.736;23.292;2022-08-19T08:35:35;9.83;;;7.23;;
16462;SDS011;8342;42.736;23.292;2022-08-19T08:38:05;12.80;;;6.53;;
16462;SDS011;8342;42.736;23.292;2022-08-19T08:40:34;14.07;;;6.77;;
16462;SDS011;8342;42.736;23.292;2022-08-19T08:43:06;9.63;;;7.20;;
16462;SDS011;8342;42.736;23.292;2022-08-19T08:45:38;9.87;;;6.87;;
16462;SDS011;8342;42.736;23.292;2022-08-19T08:48:12;8.47;;;7.00;;
16462;SDS011;8342;42.736;23.292;2022-08-19T08:50:42;13.93;;;7.77;;
16462;SDS011;8342;42.736;23.292;2022-08-19T08:53:14;6.60;;;6.00;;
16462;SDS011;8342;42.736;23.292;2022-08-19T08:55:42;9.80;;;6.73;;
16462;SDS011;8342;42.736;23.292;2022-08-19T08:58:11;8.23;;;6.63;;
16462;SDS011;8342;42.736;23.292;2022-08-19T09:00:42;12.53;;;10.87;;
16462;SDS011;8342;42.736;23.292;2022-08-19T09:03:14;8.50;;;7.70;;
16462;SDS011;8342;42.736;23.292;2022-08-19T09:05:45;8.90;;;7.13;;
16462;SDS011;8342;42.736;23.292;2022-08-19T09:08:20;11.73;;;7.03;;
16462;SDS011;8342;42.736;23.292;2022-08-19T09:10:55;11.87;;;6.73;;
16462;SDS011;8342;42.736;23.292;2022-08-19T09:13:24;12.70;;;8.10;;
16462;SDS011;8342;42.736;23.292;2022-08-19T09:15:57;8.57;;;6.53;;
16462;SDS011;8342;42.736;23.292;2022-08-19T09:18:32;8.77;;;5.23;;
16462;SDS011;8342;42.736;23.292;2022-08-19T09:21:05;9.17;;;8.20;;
16462;SDS011;8342;42.736;23.292;2022-08-19T09:23:34;6.77;;;6.17;;
16462;SDS011;8342;42.736;23.292;2022-08-19T09:26:01;6.13;;;5.23;;
16462;SDS011;8342;42.736;23.292;2022-08-19T09:28:32;6.07;;;5.50;;
16462;SDS011;8342;42.736;23.292;2022-08-19T09:30:59;5.40;;;4.90;;
16462;SDS011;8342;42.736;23.292;2022-08-19T09:33:26;5.13;;;4.63;;
16462;SDS011;8342;42.736;23.292;2022-08-19T09:36:01;4.90;;;4.40;;
16462;SDS011;8342;42.736;23.292;2022-08-19T09:38:29;7.07;;;4.20;;
16462;SDS011;8342;42.736;23.292;2022-08-19T09:41:02;5.40;;;4.40;;
16462;SDS011;8342;42.736;23.292;2022-08-19T09:43:31;5.57;;;4.77;;
16462;SDS011;8342;42.736;23.292;2022-08-19T09:45:58;6.63;;;4.90;;
16462;SDS011;8342;42.736;23.292;2022-08-19T09:48:25;6.70;;;4.97;;
16462;SDS011;8342;42.736;23.292;2022-08-19T09:50:52;5.87;;;4.73;;
16462;SDS011;8342;42.736;23.292;2022-08-19T09:53:19;11.60;;;9.43;;
16462;SDS011;8342;42.736;23.292;2022-08-19T09:55:47;11.13;;;8.97;;
16462;SDS011;8342;42.736;23.292;2022-08-19T09:58:15;5.97;;;5.37;;
16462;SDS011;8342;42.736;23.292;2022-08-19T10:00:42;7.77;;;5.20;;
16462;SDS011;8342;42.736;23.292;2022-08-19T10:03:10;10.07;;;5.07;;
16462;SDS011;8342;42.736;23.292;2022-08-19T10:05:37;9.60;;;8.00;;
16462;SDS011;8342;42.736;23.292;2022-08-19T10:08:17;6.27;;;5.43;;
16462;SDS011;8342;42.736;23.292;2022-08-19T10:10:45;6.00;;;5.27;;
16462;SDS011;8342;42.736;23.292;2022-08-19T10:13:14;6.13;;;5.23;;
16462;SDS011;8342;42.736;23.292;2022-08-19T10:15:47;10.93;;;8.23;;
16462;SDS011;8342;42.736;23.292;2022-08-19T10:18:16;6.67;;;6.07;;
16462;SDS011;8342;42.736;23.292;2022-08-19T10:20:43;8.70;;;6.80;;
16462;SDS011;8342;42.736;23.292;2022-08-19T10:23:10;6.83;;;5.30;;
16462;SDS011;8342;42.736;23.292;2022-08-19T10:25:37;6.13;;;5.63;;
16462;SDS011;8342;42.736;23.292;2022-08-19T10:28:04;6.73;;;6.23;;
16462;SDS011;8342;42.736;23.292;2022-08-19T10:30:36;6.67;;;6.07;;
16462;SDS011;8342;42.736;23.292;2022-08-19T10:33:03;5.73;;;5.10;;
16462;SDS011;8342;42.736;23.292;2022-08-19T10:35:30;5.20;;;4.80;;
16462;SDS011;8342;42.736;23.292;2022-08-19T10:37:57;6.47;;;5.43;;
16462;SDS011;8342;42.736;23.292;2022-08-19T10:40:26;7.23;;;5.80;;
16462;SDS011;8342;42.736;23.292;2022-08-19T10:42:54;7.17;;;6.20;;
16462;SDS011;8342;42.736;23.292;2022-08-19T10:45:21;6.60;;;5.07;;
16462;SDS011;8342;42.736;23.292;2022-08-19T10:47:52;6.07;;;5.47;;
16462;SDS011;8342;42.736;23.292;2022-08-19T10:50:19;9.13;;;8.23;;
16462;SDS011;8342;42.736;23.292;2022-08-19T10:53:04;8.40;;;5.80;;
16462;SDS011;8342;42.736;23.292;2022-08-19T10:55:33;7.13;;;5.53;;
16462;SDS011;8342;42.736;23.292;2022-08-19T10:58:24;8.77;;;6.37;;
16462;SDS011;8342;42.736;23.292;2022-08-19T11:00:51;11.73;;;5.70;;
16462;SDS011;8342;42.736;23.292;2022-08-19T11:03:21;6.83;;;5.80;;
16462;SDS011;8342;42.736;23.292;2022-08-19T11:05:56;6.13;;;5.63;;
16462;SDS011;8342;42.736;23.292;2022-08-19T11:08:23;7.50;;;6.77;;
16462;SDS011;8342;42.736;23.292;2022-08-19T11:10:52;7.30;;;6.60;;
16462;SDS011;8342;42.736;23.292;2022-08-19T11:13:20;12.90;;;7.00;;
16462;SDS011;8342;42.736;23.292;2022-08-19T11:15:55;13.40;;;9.00;;
16462;SDS011;8342;42.736;23.292;2022-08-19T11:18:24;8.17;;;5.97;;
16462;SDS011;8342;42.736;23.292;2022-08-19T11:20:51;8.40;;;6.07;;
16462;SDS011;8342;42.736;23.292;2022-08-19T11:23:18;7.87;;;6.40;;
16462;SDS011;8342;42.736;23.292;2022-08-19T11:25:45;9.07;;;7.33;;
16462;SDS011;8342;42.736;23.292;2022-08-19T11:28:12;8.30;;;6.67;;
16462;SDS011;8342;42.736;23.292;2022-08-19T11:30:39;8.37;;;7.47;;
16462;SDS011;8342;42.736;23.292;2022-08-19T11:33:06;8.17;;;6.80;;
16462;SDS011;8342;42.736;23.292;2022-08-19T11:35:34;12.97;;;6.87;;
16462;SDS011;8342;42.736;23.292;2022-08-19T11:38:05;7.33;;;6.27;;
16462;SDS011;8342;42.736;23.292;2022-08-19T11:40:32;7.60;;;5.77;;
16462;SDS011;8342;42.736;23.292;2022-08-19T11:42:59;9.83;;;6.00;;
16462;SDS011;8342;42.736;23.292;2022-08-19T11:45:26;8.13;;;5.67;;
16462;SDS011;8342;42.736;23.292;2022-08-19T11:47:54;7.20;;;6.33;;
16462;SDS011;8342;42.736;23.292;2022-08-19T11:50:21;13.30;;;6.60;;
16462;SDS011;8342;42.736;23.292;2022-08-19T11:52:50;11.23;;;8.53;;
16462;SDS011;8342;42.736;23.292;2022-08-19T11:55:20;10.43;;;7.83;;
16462;SDS011;8342;42.736;23.292;2022-08-19T11:57:46;7.27;;;6.53;;
16462;SDS011;8342;42.736;23.292;2022-08-19T12:00:14;9.30;;;8.17;;
16462;SDS011;8342;42.736;23.292;2022-08-19T12:02:41;9.83;;;7.30;;
16462;SDS011;8342;42.736;23.292;2022-08-19T12:05:08;9.80;;;7.67;;
16462;SDS011;8342;42.736;23.292;2022-08-19T12:07:35;6.67;;;5.90;;
16462;SDS011;8342;42.736;23.292;2022-08-19T12:10:04;10.63;;;6.27;;
16462;SDS011;8342;42.736;23.292;2022-08-19T12:12:31;7.83;;;5.90;;
16462;SDS011;8342;42.736;23.292;2022-08-19T12:14:58;5.63;;;5.03;;
16462;SDS011;8342;42.736;23.292;2022-08-19T12:17:26;6.57;;;5.97;;
16462;SDS011;8342;42.736;23.292;2022-08-19T12:19:53;7.17;;;6.07;;
16462;SDS011;8342;42.736;23.292;2022-08-19T12:22:19;13.47;;;8.73;;
16462;SDS011;8342;42.736;23.292;2022-08-19T12:24:46;8.50;;;7.37;;
16462;SDS011;8342;42.736;23.292;2022-08-19T12:27:17;9.20;;;6.80;;
16462;SDS011;8342;42.736;23.292;2022-08-19T12:29:44;8.70;;;5.90;;
16462;SDS011;8342;42.736;23.292;2022-08-19T12:32:11;6.70;;;5.73;;
16462;SDS011;8342;42.736;23.292;2022-08-19T12:34:38;8.10;;;5.87;;
16462;SDS011;8342;42.736;23.292;2022-08-19T12:37:05;8.87;;;5.80;;
16462;SDS011;8342;42.736;23.292;2022-08-19T12:39:36;8.47;;;6.30;;
16462;SDS011;8342;42.736;23.292;2022-08-19T12:42:05;6.80;;;6.13;;
16462;SDS011;8342;42.736;23.292;2022-08-19T12:44:35;6.60;;;6.00;;
16462;SDS011;8342;42.736;23.292;2022-08-19T12:47:02;6.70;;;5.53;;
16462;SDS011;8342;42.736;23.292;2022-08-19T12:49:29;6.10;;;5.30;;
16462;SDS011;8342;42.736;23.292;2022-08-19T12:51:58;6.20;;;5.03;;
16462;SDS011;8342;42.736;23.292;2022-08-19T12:54:25;6.33;;;4.80;;
16462;SDS011;8342;42.736;23.292;2022-08-19T12:56:52;7.37;;;6.40;;
16462;SDS011;8342;42.736;23.292;2022-08-19T12:59:19;10.47;;;8.83;;
16462;SDS011;8342;42.736;23.292;2022-08-19T13:01:47;14.37;;;8.33;;
16462;SDS011;8342;42.736;23.292;2022-08-19T13:04:14;8.07;;;6.20;;
16462;SDS011;8342;42.736;23.292;2022-08-19T13:06:41;5.90;;;5.30;;
16462;SDS011;8342;42.736;23.292;2022-08-19T13:09:09;8.00;;;6.00;;
16462;SDS011;8342;42.736;23.292;2022-08-19T13:11:36;6.63;;;5.70;;
16462;SDS011;8342;42.736;23.292;2022-08-19T13:14:04;5.97;;;5.37;;
16462;SDS011;8342;42.736;23.292;2022-08-19T13:16:30;6.40;;;5.70;;
16462;SDS011;8342;42.736;23.292;2022-08-19T13:18:59;8.47;;;5.67;;
16462;SDS011;8342;42.736;23.292;2022-08-19T13:21:28;7.17;;;5.47;;
16462;SDS011;8342;42.736;23.292;2022-08-19T13:23:55;6.07;;;4.87;;
16462;SDS011;8342;42.736;23.292;2022-08-19T13:26:21;8.40;;;5.90;;
16462;SDS011;8342;42.736;23.292;2022-08-19T13:28:49;5.80;;;5.30;;
16462;SDS011;8342;42.736;23.292;2022-08-19T13:31:33;5.83;;;5.00;;
16462;SDS011;8342;42.736;23.292;2022-08-19T13:34:19;13.87;;;5.70;;
16462;SDS011;8342;42.736;23.292;2022-08-19T13:36:53;10.77;;;5.60;;
16462;SDS011;8342;42.736;23.292;2022-08-19T13:39:20;7.07;;;6.00;;
16462;SDS011;8342;42.736;23.292;2022-08-19T13:41:48;8.37;;;5.87;;
16462;SDS011;8342;42.736;23.292;2022-08-19T13:44:15;9.53;;;7.73;;
16462;SDS011;8342;42.736;23.292;2022-08-19T13:46:43;9.57;;;5.03;;
16462;SDS011;8342;42.736;23.292;2022-08-19T13:49:10;6.03;;;5.43;;
16462;SDS011;8342;42.736;23.292;2022-08-19T13:51:39;6.90;;;5.13;;
16462;SDS011;8342;42.736;23.292;2022-08-19T13:54:07;14.23;;;5.53;;
16462;SDS011;8342;42.736;23.292;2022-08-19T13:56:34;8.93;;;5.50;;
16462;SDS011;8342;42.736;23.292;2022-08-19T13:59:01;6.37;;;4.93;;
16462;SDS011;8342;42.736;23.292;2022-08-19T14:01:28;7.67;;;5.17;;
16462;SDS011;8342;42.736;23.292;2022-08-19T14:03:55;7.10;;;5.10;;
16462;SDS011;8342;42.736;23.292;2022-08-19T14:06:22;5.67;;;5.10;;
16462;SDS011;8342;42.736;23.292;2022-08-19T14:08:51;7.83;;;5.47;;
16462;SDS011;8342;42.736;23.292;2022-08-19T14:11:18;7.70;;;5.33;;
16462;SDS011;8342;42.736;23.292;2022-08-19T14:13:47;6.87;;;5.40;;
16462;SDS011;8342;42.736;23.292;2022-08-19T14:16:14;5.97;;;5.37;;
16462;SDS011;8342;42.736;23.292;2022-08-19T14:18:41;6.70;;;6.00;;
16462;SDS011;8342;42.736;23.292;2022-08-19T14:21:13;9.47;;;7.03;;
16462;SDS011;8342;42.736;23.292;2022-08-19T14:23:42;7.00;;;6.30;;
16462;SDS011;8342;42.736;23.292;2022-08-19T14:26:11;7.33;;;6.17;;
16462;SDS011;8342;42.736;23.292;2022-08-19T14:28:40;12.00;;;6.47;;
16462;SDS011;8342;42.736;23.292;2022-08-19T14:31:07;6.03;;;5.40;;
16462;SDS011;8342;42.736;23.292;2022-08-19T14:33:34;10.00;;;5.77;;
16462;SDS011;8342;42.736;23.292;2022-08-19T14:36:01;6.37;;;5.47;;
16462;SDS011;8342;42.736;23.292;2022-08-19T14:38:28;11.53;;;6.60;;
16462;SDS011;8342;42.736;23.292;2022-08-19T14:41:04;6.23;;;5.23;;
16462;SDS011;8342;42.736;23.292;2022-08-19T14:43:34;6.27;;;5.63;;
16462;SDS011;8342;42.736;23.292;2022-08-19T14:46:01;8.00;;;6.03;;
16462;SDS011;8342;42.736;23.292;2022-08-19T14:48:28;6.10;;;5.60;;
16462;SDS011;8342;42.736;23.292;2022-08-19T14:50:55;6.43;;;5.80;;